Moku Pahu — WBWK — position and weather

sailwx.info

Track history (hours):
 
Tides and Currents Weather Stations Pressure Air Temp Water Temp Dewpoint Dewpoint Depression Visibility Wind Speed Wind Dir Waves Ship Positions

Moku Pahu

Owner: American Ship Management, LLC., Concord, CA. More information available from US FCC via Universal Licensing System and Coast Guard Vessel Documentation Center.

Last reported at 2016-Apr-27 04:23 UTC. Time now 2016-Apr-30 22:30 UTC.
Position N 01°11' E 103°51'.

Type: Ship. MMSI: 366857000.

Date/timePositionNaut miles runAvg speedWind from/ knotsBaromVisibWave heightAir tempDewpointWater temp
2016-Apr-27 04:23N 01°11' E 103°51'3 3.5
2016-Apr-27 03:33N 01°13' E 103°49'5 5.0
2016-Apr-27 02:33N 01°15' E 103°45'6 0.3
2016-Apr-26 05:21N 01°18' E 103°39'0 0.0
2016-Apr-25 16:29N 01°18' E 103°39'0 0.0
2016-Apr-25 13:21N 01°18' E 103°39'0 0.0
2016-Apr-25 06:31N 01°18' E 103°39'0 0.0
2016-Apr-25 05:32N 01°18' E 103°39'0 0.0
2016-Apr-25 04:30N 01°18' E 103°39'0 0.0
2016-Apr-25 02:16N 01°18' E 103°39'0 0.0
2016-Apr-25 01:20N 01°18' E 103°39'0 0.0
2016-Apr-24 00:31N 01°18' E 103°39'0 0.0
2016-Apr-23 21:09N 01°18' E 103°39'0 0.0
2016-Apr-23 18:23N 01°18' E 103°39'0 0.0
2016-Apr-23 14:25N 01°18' E 103°39'0 0.0
2016-Apr-23 12:33N 01°18' E 103°39'0 0.0
2016-Apr-23 04:11N 01°18' E 103°39'0 0.0
2016-Apr-23 01:06N 01°18' E 103°39'0 0.0
2016-Apr-22 17:17N 01°18' E 103°39'0 0.0
2016-Apr-21 23:27N 01°18' E 103°39'0 0.0
2016-Apr-21 21:28N 01°18' E 103°39'0 0.0
2016-Apr-21 04:26N 01°18' E 103°39'3 2.9
2016-Apr-21 03:28N 01°15' E 103°39'3 2.9
2016-Apr-21 02:33N 01°13' E 103°41'7 7.4
2016-Apr-21 01:33N 01°15' E 103°48'1 0.8
2016-Apr-21 00:33N 01°15' E 103°49'0 0.0
2016-Apr-20 23:33N 01°15' E 103°49'0 0.2
2016-Apr-20 22:33N 01°15' E 103°49'0 0.1
2016-Apr-20 21:33N 01°15' E 103°49'0 0.0
2016-Apr-20 20:33N 01°15' E 103°49'0 0.0
2016-Apr-20 19:33N 01°15' E 103°49'0 0.0
2016-Apr-20 18:33N 01°15' E 103°49'0 0.0
2016-Apr-20 17:33N 01°15' E 103°49'0 0.0
2016-Apr-20 16:33N 01°15' E 103°49'0 0.1
2016-Apr-20 15:33N 01°15' E 103°49'0 0.1
2016-Apr-20 14:33N 01°15' E 103°49'0 0.1
2016-Apr-20 13:33N 01°15' E 103°49'0 0.1
2016-Apr-20 12:33N 01°15' E 103°49'0 0.0
2016-Apr-20 11:33N 01°15' E 103°49'0 0.1
2016-Apr-20 10:33N 01°15' E 103°49'0 0.2
2016-Apr-20 09:33N 01°15' E 103°49'0 0.1
2016-Apr-20 08:34N 01°15' E 103°49'0 0.0
2016-Apr-20 07:33N 01°15' E 103°49'0 0.2
2016-Apr-20 06:33N 01°15' E 103°49'0 0.2
2016-Apr-20 05:33N 01°15' E 103°49'0 0.1
2016-Apr-20 04:33N 01°15' E 103°49'0 0.0
2016-Apr-20 03:33N 01°15' E 103°49'0 0.2
2016-Apr-20 02:33N 01°15' E 103°49'0 0.1
2016-Apr-20 01:33N 01°15' E 103°49'0 0.1
2016-Apr-20 00:33N 01°15' E 103°49'0 0.0
2016-Apr-19 23:33N 01°15' E 103°49'0 0.0
2016-Apr-19 22:34N 01°15' E 103°49'0 0.1
2016-Apr-19 21:33N 01°15' E 103°49'0 0.1
2016-Apr-19 20:33N 01°15' E 103°49'0 0.0
2016-Apr-19 19:33N 01°15' E 103°49'0 0.0
2016-Apr-19 18:33N 01°15' E 103°49'0 0.0
2016-Apr-19 17:33N 01°15' E 103°49'0 0.0
2016-Apr-19 16:33N 01°15' E 103°49'0 0.1
2016-Apr-19 15:33N 01°15' E 103°49'0 0.1
2016-Apr-19 14:34N 01°15' E 103°49'0 0.1
2016-Apr-19 13:33N 01°15' E 103°49'0 0.0
2016-Apr-19 12:33N 01°15' E 103°49'0 0.0
2016-Apr-19 11:34N 01°15' E 103°49'0 0.1
2016-Apr-19 10:33N 01°15' E 103°49'0 0.0
2016-Apr-19 09:33N 01°15' E 103°49'0 0.0
2016-Apr-19 08:33N 01°15' E 103°49'0 0.0
2016-Apr-19 07:33N 01°15' E 103°49'0 0.0
2016-Apr-19 06:34N 01°15' E 103°49'0 0.0
2016-Apr-19 05:33N 01°15' E 103°49'0 0.1
2016-Apr-19 04:34N 01°15' E 103°49'0 0.0
2016-Apr-19 03:33N 01°15' E 103°49'0 0.1
2016-Apr-19 02:33N 01°15' E 103°49'2 1.8
2016-Apr-19 01:33N 01°13' E 103°50'0 0.2
2016-Apr-19 00:33N 01°13' E 103°49'3 3.3
2016-Apr-18 23:33N 01°12' E 103°53'8 8.3
2016-Apr-18 22:33N 01°08' E 103°46'1110.6
2016-Apr-18 21:30N 01°05' E 103°35'1111.9
2016-Apr-18 20:33N 01°10' E 103°25'6212.3
2016-Apr-18 15:33N 01°44' E 102°33'1413.0
2016-Apr-18 14:31N 01°50' E 102°21'  
Track history (hours):
 
Tides and Currents Weather Stations Pressure Air Temp Water Temp Dewpoint Dewpoint Depression Visibility Wind Speed Wind Dir Waves Ship Positions

Moku Pahu

Owner: American Ship Management, LLC., Concord, CA. More information available from US FCC via Universal Licensing System and Coast Guard Vessel Documentation Center.

Last reported at 2016-Apr-27 04:23 UTC. Time now 2016-Apr-30 22:30 UTC.
Position N 01°11' E 103°51'.

Type: Ship. MMSI: 366857000.

Date/timePositionNaut miles runAvg speedWind from/ knotsBaromVisibWave heightAir tempDewpointWater temp
2016-Apr-27 04:23N 01°11' E 103°51'3 3.5
2016-Apr-27 03:33N 01°13' E 103°49'5 5.0
2016-Apr-27 02:33N 01°15' E 103°45'6 0.3
2016-Apr-26 05:21N 01°18' E 103°39'0 0.0
2016-Apr-25 16:29N 01°18' E 103°39'0 0.0
2016-Apr-25 13:21N 01°18' E 103°39'0 0.0
2016-Apr-25 06:31N 01°18' E 103°39'0 0.0
2016-Apr-25 05:32N 01°18' E 103°39'0 0.0
2016-Apr-25 04:30N 01°18' E 103°39'0 0.0
2016-Apr-25 02:16N 01°18' E 103°39'0 0.0
2016-Apr-25 01:20N 01°18' E 103°39'0 0.0
2016-Apr-24 00:31N 01°18' E 103°39'0 0.0
2016-Apr-23 21:09N 01°18' E 103°39'0 0.0
2016-Apr-23 18:23N 01°18' E 103°39'0 0.0
2016-Apr-23 14:25N 01°18' E 103°39'0 0.0
2016-Apr-23 12:33N 01°18' E 103°39'0 0.0
2016-Apr-23 04:11N 01°18' E 103°39'0 0.0
2016-Apr-23 01:06N 01°18' E 103°39'0 0.0
2016-Apr-22 17:17N 01°18' E 103°39'0 0.0
2016-Apr-21 23:27N 01°18' E 103°39'0 0.0
2016-Apr-21 21:28N 01°18' E 103°39'0 0.0
2016-Apr-21 04:26N 01°18' E 103°39'3 2.9
2016-Apr-21 03:28N 01°15' E 103°39'3 2.9
2016-Apr-21 02:33N 01°13' E 103°41'7 7.4
2016-Apr-21 01:33N 01°15' E 103°48'1 0.8
2016-Apr-21 00:33N 01°15' E 103°49'0 0.0
2016-Apr-20 23:33N 01°15' E 103°49'0 0.2
2016-Apr-20 22:33N 01°15' E 103°49'0 0.1
2016-Apr-20 21:33N 01°15' E 103°49'0 0.0
2016-Apr-20 20:33N 01°15' E 103°49'0 0.0
2016-Apr-20 19:33N 01°15' E 103°49'0 0.0
2016-Apr-20 18:33N 01°15' E 103°49'0 0.0
2016-Apr-20 17:33N 01°15' E 103°49'0 0.0
2016-Apr-20 16:33N 01°15' E 103°49'0 0.1
2016-Apr-20 15:33N 01°15' E 103°49'0 0.1
2016-Apr-20 14:33N 01°15' E 103°49'0 0.1
2016-Apr-20 13:33N 01°15' E 103°49'0 0.1
2016-Apr-20 12:33N 01°15' E 103°49'0 0.0
2016-Apr-20 11:33N 01°15' E 103°49'0 0.1
2016-Apr-20 10:33N 01°15' E 103°49'0 0.2
2016-Apr-20 09:33N 01°15' E 103°49'0 0.1
2016-Apr-20 08:34N 01°15' E 103°49'0 0.0
2016-Apr-20 07:33N 01°15' E 103°49'0 0.2
2016-Apr-20 06:33N 01°15' E 103°49'0 0.2
2016-Apr-20 05:33N 01°15' E 103°49'0 0.1
2016-Apr-20 04:33N 01°15' E 103°49'0 0.0
2016-Apr-20 03:33N 01°15' E 103°49'0 0.2
2016-Apr-20 02:33N 01°15' E 103°49'0 0.1
2016-Apr-20 01:33N 01°15' E 103°49'0 0.1
2016-Apr-20 00:33N 01°15' E 103°49'0 0.0
2016-Apr-19 23:33N 01°15' E 103°49'0 0.0
2016-Apr-19 22:34N 01°15' E 103°49'0 0.1
2016-Apr-19 21:33N 01°15' E 103°49'0 0.1
2016-Apr-19 20:33N 01°15' E 103°49'0 0.0
2016-Apr-19 19:33N 01°15' E 103°49'0 0.0
2016-Apr-19 18:33N 01°15' E 103°49'0 0.0
2016-Apr-19 17:33N 01°15' E 103°49'0 0.0
2016-Apr-19 16:33N 01°15' E 103°49'0 0.1
2016-Apr-19 15:33N 01°15' E 103°49'0 0.1
2016-Apr-19 14:34N 01°15' E 103°49'0 0.1
2016-Apr-19 13:33N 01°15' E 103°49'0 0.0
2016-Apr-19 12:33N 01°15' E 103°49'0 0.0
2016-Apr-19 11:34N 01°15' E 103°49'0 0.1
2016-Apr-19 10:33N 01°15' E 103°49'0 0.0
2016-Apr-19 09:33N 01°15' E 103°49'0 0.0
2016-Apr-19 08:33N 01°15' E 103°49'0 0.0
2016-Apr-19 07:33N 01°15' E 103°49'0 0.0
2016-Apr-19 06:34N 01°15' E 103°49'0 0.0
2016-Apr-19 05:33N 01°15' E 103°49'0 0.1
2016-Apr-19 04:34N 01°15' E 103°49'0 0.0
2016-Apr-19 03:33N 01°15' E 103°49'0 0.1
2016-Apr-19 02:33N 01°15' E 103°49'2 1.8
2016-Apr-19 01:33N 01°13' E 103°50'0 0.2
2016-Apr-19 00:33N 01°13' E 103°49'3 3.3
2016-Apr-18 23:33N 01°12' E 103°53'8 8.3
2016-Apr-18 22:33N 01°08' E 103°46'1110.6
2016-Apr-18 21:30N 01°05' E 103°35'1111.9
2016-Apr-18 20:33N 01°10' E 103°25'6212.3
2016-Apr-18 15:33N 01°44' E 102°33'1413.0
2016-Apr-18 14:31N 01°50' E 102°21'  

Dump ship's entire track history